createdAt,value
2023-05-18T00:00:47.601Z,10.22
2023-05-18T00:01:56.230Z,10.24
2023-05-18T00:02:59.113Z,10.25
2023-05-18T00:04:02.170Z,10.27
2023-05-18T00:05:05.193Z,10.25
2023-05-18T00:06:07.930Z,10.24
2023-05-18T00:07:10.812Z,10.21
2023-05-18T00:08:13.590Z,10.22
2023-05-18T00:09:16.320Z,10.22
2023-05-18T00:10:19.065Z,10.25
2023-05-18T00:11:21.920Z,10.27
2023-05-18T00:12:24.622Z,10.29
2023-05-18T00:13:27.335Z,10.30
2023-05-18T00:14:30.644Z,10.30
2023-05-18T00:15:33.381Z,10.31
2023-05-18T00:16:36.118Z,10.31
2023-05-18T00:17:38.973Z,10.31
2023-05-18T00:18:41.899Z,10.32
2023-05-18T00:19:46.659Z,10.32
2023-05-18T00:20:50.764Z,10.32
2023-05-18T00:21:55.936Z,10.33
2023-05-18T00:22:58.668Z,10.32
2023-05-18T00:24:01.705Z,10.29
2023-05-18T00:25:05.029Z,10.30
2023-05-18T00:26:07.735Z,10.31
2023-05-18T00:27:10.516Z,10.31
2023-05-18T00:28:13.311Z,10.31
2023-05-18T00:29:16.112Z,10.31
2023-05-18T00:30:19.062Z,10.31
2023-05-18T00:31:21.917Z,10.30
2023-05-18T00:32:24.647Z,10.30
2023-05-18T00:33:27.726Z,10.32
2023-05-18T00:34:30.423Z,10.30
2023-05-18T00:35:33.170Z,10.29
2023-05-18T00:36:36.682Z,10.30
2023-05-18T00:37:39.394Z,10.31
2023-05-18T00:38:42.185Z,10.33
2023-05-18T00:39:45.077Z,10.32
2023-05-18T00:40:48.065Z,10.31
2023-05-18T00:41:50.815Z,10.29
2023-05-18T00:42:54.255Z,10.29
2023-05-18T00:43:57.521Z,10.29
2023-05-18T00:45:00.758Z,10.31
2023-05-18T00:46:03.531Z,10.32
2023-05-18T00:47:06.412Z,10.34
2023-05-18T00:48:09.154Z,10.34
2023-05-18T00:49:12.035Z,10.35
2023-05-18T00:50:15.106Z,10.35
2023-05-18T00:51:18.558Z,10.31
2023-05-18T00:52:21.962Z,10.33
2023-05-18T00:53:24.653Z,10.33
2023-05-18T00:54:27.448Z,10.32
2023-05-18T00:55:30.704Z,10.28
2023-05-18T00:56:34.405Z,10.27
2023-05-18T00:57:38.362Z,10.29
2023-05-18T00:58:42.006Z,10.32
2023-05-18T00:59:46.089Z,10.32
2023-05-18T01:00:48.824Z,10.30
2023-05-18T01:01:51.503Z,10.29
2023-05-18T01:02:54.492Z,10.30
2023-05-18T01:03:58.246Z,10.29
2023-05-18T01:05:03.481Z,10.23
2023-05-18T01:06:08.460Z,10.20
2023-05-18T01:07:11.270Z,10.21
2023-05-18T01:08:14.061Z,10.22
2023-05-18T01:09:19.592Z,10.20
2023-05-18T01:10:24.898Z,10.20
2023-05-18T01:11:30.610Z,10.18
2023-05-18T01:12:37.437Z,10.17
2023-05-18T01:13:58.664Z,10.18
2023-05-18T01:15:04.559Z,10.13
2023-05-18T01:16:09.842Z,10.06
2023-05-18T01:17:33.602Z,9.91
2023-05-18T01:18:46.984Z,9.69
2023-05-18T01:19:52.404Z,9.51
2023-05-18T01:21:22.028Z,9.37
2023-05-18T01:22:34.114Z,9.19
2023-05-18T01:23:36.870Z,9.15
2023-05-18T01:24:43.030Z,9.20
2023-05-18T01:25:54.767Z,9.27
2023-05-18T01:26:59.932Z,9.34
2023-05-18T01:28:06.545Z,9.42
2023-05-18T01:29:11.549Z,9.48
2023-05-18T01:30:16.019Z,9.54
2023-05-18T01:33:01.158Z,9.62
2023-05-18T01:34:04.781Z,9.64
2023-05-18T01:35:07.777Z,9.67
2023-05-18T01:36:11.356Z,9.70
2023-05-18T01:37:14.398Z,9.74
2023-05-18T02:14:14.106Z,9.84
2023-05-18T02:15:17.448Z,9.83
2023-05-18T02:16:20.247Z,9.83
2023-05-18T02:17:26.069Z,9.85
2023-05-18T03:15:57.811Z,10.10
2023-05-18T03:17:01.590Z,10.12
2023-05-18T03:18:05.117Z,10.13
2023-05-18T03:19:07.980Z,10.15
2023-05-18T05:40:14.098Z,12.63
2023-05-18T05:41:20.093Z,12.67
2023-05-18T05:42:22.927Z,12.71
2023-05-18T05:43:25.900Z,12.75
2023-05-18T05:44:28.700Z,12.79
2023-05-18T08:29:12.379Z,14.83
2023-05-18T08:30:15.713Z,14.82
2023-05-18T08:31:18.639Z,14.83
2023-05-18T08:32:21.602Z,14.81
2023-05-18T12:56:01.856Z,25.24
2023-05-18T12:57:10.048Z,25.25
2023-05-18T12:58:18.240Z,25.19
2023-05-18T12:59:21.847Z,25.19
2023-05-18T13:00:24.634Z,25.24
2023-05-18T13:01:28.090Z,25.33
2023-05-18T13:02:32.434Z,25.38
2023-05-18T13:03:35.637Z,25.37
2023-05-18T13:04:38.475Z,25.26
2023-05-18T13:05:42.586Z,25.19
2023-05-18T13:06:45.656Z,25.15
2023-05-18T13:07:48.488Z,24.98
2023-05-18T13:08:55.373Z,24.93
2023-05-18T13:10:02.018Z,24.83
2023-05-18T13:11:13.404Z,24.70
2023-05-18T13:12:17.317Z,24.47
2023-05-18T13:13:20.077Z,24.39
2023-05-18T13:14:23.490Z,24.36
2023-05-18T13:15:26.232Z,24.32
2023-05-18T13:16:30.497Z,24.24
2023-05-18T13:17:33.681Z,24.27
2023-05-18T13:18:36.546Z,24.18
2023-05-18T13:19:39.260Z,24.28
2023-05-18T13:20:45.491Z,24.52
2023-05-18T13:21:55.600Z,24.60
2023-05-18T13:22:59.751Z,24.81
2023-05-18T13:24:03.260Z,24.96
2023-05-18T13:25:06.730Z,25.03
2023-05-18T13:26:09.609Z,25.12
2023-05-18T13:27:12.352Z,25.24
2023-05-18T13:28:16.518Z,25.44
2023-05-18T13:29:19.428Z,25.66
2023-05-18T13:30:22.880Z,25.59
2023-05-18T13:31:25.745Z,25.58
2023-05-18T13:32:28.502Z,25.55
2023-05-18T13:33:31.214Z,25.67
2023-05-18T13:34:34.025Z,25.76
2023-05-18T13:35:37.641Z,25.87
2023-05-18T13:36:41.082Z,25.99
2023-05-18T13:37:45.336Z,26.22
2023-05-18T13:38:49.815Z,26.71
2023-05-18T13:39:52.590Z,26.77
2023-05-18T13:40:55.713Z,26.71
2023-05-18T13:41:59.623Z,26.69
2023-05-18T13:43:02.319Z,26.79
2023-05-18T13:44:05.085Z,26.92
2023-05-18T13:45:08.226Z,27.10
2023-05-18T13:46:11.000Z,27.12
2023-05-18T13:47:13.831Z,27.05
2023-05-18T13:48:16.547Z,27.00
2023-05-18T13:49:19.290Z,27.15
2023-05-18T13:50:23.077Z,27.31
2023-05-18T13:51:25.913Z,27.44
2023-05-18T13:52:28.734Z,27.45
2023-05-18T13:53:31.471Z,27.53
2023-05-18T13:54:34.220Z,27.59
2023-05-18T13:55:37.105Z,27.68
2023-05-18T13:56:40.235Z,27.93
2023-05-18T13:57:43.270Z,28.01
2023-05-18T13:58:46.170Z,27.99
2023-05-18T13:59:48.957Z,28.20
2023-05-18T14:00:53.957Z,28.30
2023-05-18T14:01:56.891Z,28.40
2023-05-18T14:02:59.753Z,28.53
2023-05-18T14:04:02.829Z,28.50
2023-05-18T14:05:08.574Z,28.51
2023-05-18T14:06:11.441Z,28.65
2023-05-18T14:07:14.188Z,28.54
2023-05-18T14:08:16.896Z,28.44
2023-05-18T14:09:19.766Z,28.41
2023-05-18T14:10:22.616Z,28.37
2023-05-18T14:11:25.398Z,28.33
2023-05-18T14:12:28.063Z,28.25
2023-05-18T14:13:30.890Z,28.20
2023-05-18T14:14:33.574Z,28.36
2023-05-18T14:15:36.670Z,28.37
2023-05-18T14:16:39.463Z,28.37
2023-05-18T14:17:42.886Z,28.44
2023-05-18T14:18:45.733Z,28.44
2023-05-18T14:19:48.539Z,28.40
2023-05-18T14:20:51.360Z,28.38
2023-05-18T14:21:54.121Z,28.38
2023-05-18T14:22:57.045Z,28.32
2023-05-18T14:24:03.657Z,28.29
2023-05-18T14:25:06.567Z,28.35
2023-05-18T14:26:09.493Z,28.25
2023-05-18T14:27:12.158Z,28.15
2023-05-18T14:28:14.922Z,28.12
2023-05-18T14:29:17.623Z,28.21
2023-05-18T14:30:20.371Z,28.39
2023-05-18T14:31:23.134Z,28.37
2023-05-18T14:32:25.933Z,28.42
2023-05-18T14:33:28.769Z,28.59
2023-05-18T14:34:31.549Z,28.80
2023-05-18T14:35:34.653Z,28.79
2023-05-18T14:36:37.390Z,28.89
2023-05-18T14:37:40.278Z,28.84
2023-05-18T14:38:43.479Z,28.71
2023-05-18T14:39:46.228Z,28.69
2023-05-18T14:40:48.960Z,28.89
2023-05-18T14:41:51.755Z,28.81
2023-05-18T14:42:54.625Z,28.81
2023-05-18T14:43:57.366Z,28.75
2023-05-18T14:45:00.095Z,28.73
2023-05-18T14:46:08.671Z,28.68
2023-05-18T14:47:11.914Z,28.81
2023-05-18T14:48:14.756Z,28.85
2023-05-18T14:49:17.487Z,28.93
2023-05-18T14:50:20.612Z,28.98
2023-05-18T14:51:24.721Z,28.98
2023-05-18T14:52:27.451Z,29.05
2023-05-18T14:53:30.421Z,29.13
2023-05-18T14:54:33.285Z,29.24
2023-05-18T14:55:36.058Z,29.53
2023-05-18T14:56:38.802Z,29.66
2023-05-18T14:57:41.744Z,29.77
2023-05-18T14:58:44.508Z,29.90
2023-05-18T14:59:47.272Z,29.96
2023-05-18T15:00:50.001Z,30.13
2023-05-18T15:01:52.756Z,30.21
2023-05-18T15:02:56.636Z,30.18
2023-05-18T15:03:59.744Z,30.13
2023-05-18T15:05:02.844Z,30.09
2023-05-18T15:06:05.736Z,30.11
2023-05-18T15:07:08.727Z,30.21
2023-05-18T15:08:11.410Z,30.25
2023-05-18T15:09:15.116Z,30.20
2023-05-18T15:10:17.978Z,30.20
2023-05-18T15:11:22.735Z,30.22
2023-05-18T15:12:25.676Z,30.28
2023-05-18T15:13:28.517Z,30.27
2023-05-18T15:14:31.346Z,30.28
2023-05-18T15:15:34.242Z,30.32
2023-05-18T15:16:37.139Z,30.41
2023-05-18T15:17:40.097Z,30.46
2023-05-18T15:18:43.100Z,30.52
2023-05-18T15:19:47.036Z,30.65
2023-05-18T15:20:49.813Z,30.71
2023-05-18T15:21:52.581Z,30.70
2023-05-18T15:22:55.315Z,30.68
2023-05-18T15:23:58.245Z,30.60
2023-05-18T15:25:01.665Z,30.56
2023-05-18T15:26:05.728Z,30.56
2023-05-18T15:27:10.572Z,30.61
2023-05-18T15:28:14.022Z,30.62
2023-05-18T15:29:16.823Z,30.63
2023-05-18T15:30:19.679Z,30.63
2023-05-18T15:31:22.744Z,30.57
2023-05-18T15:32:28.463Z,30.38
2023-05-18T15:33:32.717Z,30.05
2023-05-18T15:34:35.677Z,29.57
2023-05-18T15:35:39.429Z,29.00
2023-05-18T15:36:42.285Z,28.46
2023-05-18T15:37:45.106Z,28.04
2023-05-18T15:38:47.869Z,27.55
2023-05-18T15:39:50.977Z,26.79
2023-05-18T15:40:54.469Z,26.11
2023-05-18T15:41:57.557Z,25.63
2023-05-18T15:43:01.087Z,25.04
2023-05-18T15:44:04.476Z,24.46
2023-05-18T15:46:32.242Z,23.46
2023-05-18T15:47:35.238Z,22.90
2023-05-18T15:48:38.131Z,22.44
2023-05-18T15:49:40.955Z,22.01
2023-05-18T15:50:43.721Z,21.61
2023-05-18T15:51:46.527Z,21.31
2023-05-18T15:52:49.317Z,21.03
2023-05-18T15:53:52.186Z,20.82
2023-05-18T15:54:54.958Z,20.51
2023-05-18T15:55:59.370Z,20.06
2023-05-18T15:57:02.736Z,19.69
2023-05-18T15:58:05.567Z,19.39
2023-05-18T15:59:08.725Z,19.13
2023-05-18T16:00:11.761Z,18.79
2023-05-18T16:01:14.578Z,18.63
2023-05-18T16:02:17.591Z,18.43
2023-05-18T16:03:20.564Z,18.18
2023-05-18T16:04:23.403Z,17.99
2023-05-18T16:05:26.149Z,17.82
2023-05-18T16:06:29.061Z,17.64
2023-05-18T16:07:31.865Z,17.46
2023-05-18T16:08:34.788Z,17.27
2023-05-18T16:09:37.699Z,17.11
2023-05-18T16:10:41.462Z,16.98
2023-05-18T16:11:44.358Z,16.91
2023-05-18T16:12:47.234Z,16.77
2023-05-18T16:13:50.366Z,16.64
2023-05-18T16:14:53.124Z,16.60
2023-05-18T16:15:56.004Z,16.50
2023-05-18T16:16:58.956Z,16.33
2023-05-18T16:18:02.291Z,16.20
2023-05-18T16:19:07.172Z,16.07
2023-05-18T16:20:10.448Z,15.96
2023-05-18T16:21:13.570Z,15.87
2023-05-18T16:22:16.454Z,15.78
2023-05-18T16:23:19.234Z,15.71
2023-05-18T16:24:22.011Z,15.63
2023-05-18T16:25:25.136Z,15.59
2023-05-18T16:26:27.959Z,15.54
2023-05-18T16:27:31.021Z,15.46
2023-05-18T16:28:33.999Z,15.41
2023-05-18T16:29:36.775Z,15.37
2023-05-18T16:30:42.114Z,15.36
2023-05-18T16:31:45.069Z,15.34
2023-05-18T16:32:48.170Z,15.36
2023-05-18T16:33:51.069Z,15.34
2023-05-18T16:34:53.770Z,15.35
2023-05-18T16:35:58.345Z,15.31
2023-05-18T16:37:01.132Z,15.20
2023-05-18T16:38:04.042Z,15.14
2023-05-18T16:39:07.863Z,15.07
2023-05-18T16:40:10.973Z,15.03
2023-05-18T16:41:14.813Z,14.96
2023-05-18T16:42:18.536Z,14.86
2023-05-18T16:43:21.555Z,14.77
2023-05-18T16:44:24.384Z,14.70
2023-05-18T16:45:27.993Z,14.65
2023-05-18T16:46:30.836Z,14.60
2023-05-18T16:47:33.839Z,14.55
2023-05-18T16:48:37.083Z,14.52
2023-05-18T16:49:40.053Z,14.46
2023-05-18T16:50:42.849Z,14.41
2023-05-18T16:51:45.755Z,14.36
2023-05-18T16:52:48.590Z,14.30
2023-05-18T16:53:52.420Z,14.25
2023-05-18T16:54:55.301Z,14.17
2023-05-18T16:55:58.018Z,14.10
2023-05-18T16:57:01.517Z,14.06
2023-05-18T16:58:04.350Z,14.02
2023-05-18T16:59:07.718Z,13.96
2023-05-18T17:00:11.433Z,13.93
2023-05-18T17:01:26.564Z,13.89
2023-05-18T17:02:31.013Z,13.80
2023-05-18T17:03:37.965Z,13.75
2023-05-18T17:04:49.705Z,13.72
2023-05-18T17:05:53.067Z,13.69
2023-05-18T17:06:55.948Z,13.62
2023-05-18T17:07:58.822Z,13.57
2023-05-18T17:09:02.324Z,13.54
2023-05-18T17:10:06.942Z,13.50
2023-05-18T17:11:09.796Z,13.46
2023-05-18T17:12:12.607Z,13.40
2023-05-18T17:13:15.570Z,13.38
2023-05-18T17:14:18.609Z,13.34
2023-05-18T17:15:21.394Z,13.30
2023-05-18T17:16:26.495Z,13.29
2023-05-18T17:17:29.440Z,13.26
2023-05-18T17:18:32.381Z,13.23
2023-05-18T17:19:35.553Z,13.20
2023-05-18T17:20:38.358Z,13.15
2023-05-18T17:21:41.403Z,13.12
2023-05-18T17:22:44.151Z,13.08
2023-05-18T17:23:46.995Z,13.06
2023-05-18T17:24:49.689Z,13.04
2023-05-18T17:25:55.100Z,13.01
2023-05-18T17:27:04.264Z,12.98
2023-05-18T17:28:07.059Z,12.97
2023-05-18T17:29:09.974Z,12.99
2023-05-18T17:30:12.747Z,12.96
2023-05-18T17:31:15.756Z,12.94
2023-05-18T17:32:18.531Z,12.91
2023-05-18T17:33:21.374Z,12.91
2023-05-18T17:34:26.667Z,12.89
2023-05-18T17:35:29.485Z,12.87
2023-05-18T17:36:32.222Z,12.85
2023-05-18T17:37:34.996Z,12.85
2023-05-18T17:38:37.727Z,12.81
2023-05-18T17:39:40.579Z,12.78
2023-05-18T17:40:43.487Z,12.74
2023-05-18T17:41:46.659Z,12.72
2023-05-18T17:42:49.451Z,12.70
2023-05-18T17:43:52.195Z,12.68
2023-05-18T17:44:54.937Z,12.68
2023-05-18T17:45:57.686Z,12.67
2023-05-18T17:47:01.531Z,12.68
2023-05-18T17:48:04.562Z,12.66
2023-05-18T17:49:07.585Z,12.63
2023-05-18T17:50:10.635Z,12.61
2023-05-18T17:51:13.394Z,12.61
2023-05-18T17:52:16.198Z,12.59
2023-05-18T17:53:19.314Z,12.56
2023-05-18T17:54:22.498Z,12.52
2023-05-18T17:55:25.274Z,12.50
2023-05-18T17:56:28.205Z,12.49
2023-05-18T17:57:32.159Z,12.48
2023-05-18T17:58:38.781Z,12.46
2023-05-18T17:59:41.616Z,12.42
2023-05-18T18:00:44.482Z,12.40
2023-05-18T18:01:47.290Z,12.40
2023-05-18T18:02:50.409Z,12.40
2023-05-18T18:03:53.410Z,12.38
2023-05-18T18:04:56.236Z,12.36
2023-05-18T18:05:59.108Z,12.33
2023-05-18T18:07:01.898Z,12.31
2023-05-18T18:08:04.652Z,12.28
2023-05-18T18:09:07.461Z,12.25
2023-05-18T18:10:10.518Z,12.22
2023-05-18T18:11:13.446Z,12.20
2023-05-18T18:12:17.056Z,12.18
2023-05-18T18:13:19.851Z,12.14
2023-05-18T18:14:22.832Z,12.12
2023-05-18T18:15:27.477Z,12.10
2023-05-18T18:16:30.339Z,12.07
2023-05-18T18:17:33.529Z,12.04
2023-05-18T18:18:36.777Z,12.02
2023-05-18T18:19:39.584Z,12.01
2023-05-18T18:20:42.338Z,11.99
2023-05-18T18:21:45.077Z,11.97
2023-05-18T18:22:47.940Z,11.95
2023-05-18T18:23:50.843Z,11.91
2023-05-18T18:24:53.580Z,11.88
2023-05-18T18:25:56.412Z,11.87
2023-05-18T18:26:59.319Z,11.84
2023-05-18T18:28:02.096Z,11.83
2023-05-18T18:29:04.950Z,11.79
2023-05-18T18:30:08.576Z,11.76
2023-05-18T18:31:11.565Z,11.73
2023-05-18T18:32:14.500Z,11.72
2023-05-18T18:33:17.470Z,11.69
2023-05-18T18:34:20.420Z,11.66
2023-05-18T18:35:23.181Z,11.64
2023-05-18T18:36:26.536Z,11.61
2023-05-18T18:37:29.357Z,11.57
2023-05-18T18:38:33.885Z,11.54
2023-05-18T18:39:36.874Z,11.51
2023-05-18T18:40:39.814Z,11.49
2023-05-18T18:41:43.032Z,11.47
2023-05-18T18:42:47.344Z,11.46
2023-05-18T18:43:53.840Z,11.44
2023-05-18T18:44:56.866Z,11.42
2023-05-18T18:45:59.933Z,11.39
2023-05-18T18:47:02.796Z,11.36
2023-05-18T18:48:05.794Z,11.33
2023-05-18T18:49:08.847Z,11.31
2023-05-18T18:50:11.896Z,11.28
2023-05-18T18:51:14.763Z,11.27
2023-05-18T18:52:17.641Z,11.33
2023-05-18T18:53:20.598Z,11.42
2023-05-18T18:54:23.479Z,11.53
2023-05-18T18:55:26.673Z,11.65
2023-05-18T18:56:29.492Z,11.75
2023-05-18T18:57:33.483Z,11.84
2023-05-18T18:58:36.333Z,11.91
2023-05-18T18:59:39.338Z,11.99
2023-05-18T19:00:42.264Z,12.05
2023-05-18T19:01:45.052Z,12.12
2023-05-18T19:02:47.889Z,12.16
2023-05-18T19:03:52.645Z,12.16
2023-05-18T19:04:55.822Z,12.12
2023-05-18T19:05:59.098Z,12.02
2023-05-18T19:07:03.265Z,11.91
2023-05-18T19:08:06.845Z,11.80
2023-05-18T19:09:09.712Z,11.70
2023-05-18T19:10:12.532Z,11.61
2023-05-18T19:11:15.379Z,11.54
2023-05-18T19:12:18.816Z,11.46
2023-05-18T19:13:21.742Z,11.40
2023-05-18T19:14:24.723Z,11.34
2023-05-18T19:15:27.920Z,11.28
2023-05-18T19:16:31.278Z,11.24
2023-05-18T19:17:34.073Z,11.20
2023-05-18T19:18:36.871Z,11.15
2023-05-18T19:19:39.794Z,11.10
2023-05-18T19:20:42.810Z,11.06
2023-05-18T19:21:47.119Z,11.02
2023-05-18T19:22:49.871Z,10.98
2023-05-18T19:23:52.713Z,10.94
2023-05-18T19:24:55.527Z,10.91
2023-05-18T19:25:59.525Z,10.87
2023-05-18T19:27:02.679Z,10.85
2023-05-18T19:28:05.444Z,10.83
2023-05-18T19:29:08.301Z,10.80
2023-05-18T19:30:13.176Z,10.77
2023-05-18T19:31:16.045Z,10.75
2023-05-18T19:32:18.949Z,10.71
2023-05-18T19:33:22.317Z,10.69
2023-05-18T19:34:25.138Z,10.67
2023-05-18T19:35:27.882Z,10.64
2023-05-18T19:36:31.490Z,10.62
2023-05-18T19:37:34.305Z,10.59
2023-05-18T19:38:37.030Z,10.58
2023-05-18T19:39:39.872Z,10.55
2023-05-18T19:40:42.895Z,10.53
2023-05-18T19:41:46.047Z,10.51
2023-05-18T19:42:49.233Z,10.50
2023-05-18T19:43:52.333Z,10.48
2023-05-18T19:44:55.094Z,10.46
2023-05-18T19:45:57.931Z,10.45
2023-05-18T19:47:00.684Z,10.44
2023-05-18T19:48:03.529Z,10.42
2023-05-18T19:49:10.179Z,10.40
2023-05-18T19:50:13.277Z,10.39
2023-05-18T19:51:16.150Z,10.37
2023-05-18T19:52:19.987Z,10.36
2023-05-18T19:53:23.096Z,10.34
2023-05-18T19:54:25.832Z,10.33
2023-05-18T19:55:28.628Z,10.31
2023-05-18T19:56:31.474Z,10.30
2023-05-18T19:57:34.243Z,10.30
2023-05-18T19:58:37.222Z,10.28
2023-05-18T19:59:39.964Z,10.26
2023-05-18T20:00:42.713Z,10.25
2023-05-18T20:01:46.533Z,10.24
2023-05-18T20:02:49.482Z,10.23
2023-05-18T20:03:53.279Z,10.22
2023-05-18T20:04:56.094Z,10.20
2023-05-18T20:05:58.923Z,10.18
2023-05-18T20:07:01.889Z,10.17
2023-05-18T20:08:05.042Z,10.16
2023-05-18T20:09:07.786Z,10.14
2023-05-18T20:10:10.554Z,10.13
2023-05-18T20:11:14.743Z,10.12
2023-05-18T20:12:17.796Z,10.11
2023-05-18T20:13:20.807Z,10.11
2023-05-18T20:14:23.707Z,10.10
2023-05-18T20:48:57.481Z,9.81
2023-05-18T20:50:00.343Z,9.81
2023-05-18T20:51:03.353Z,9.81
2023-05-18T20:52:06.250Z,9.80
2023-05-18T20:53:09.085Z,9.80
2023-05-18T20:54:11.756Z,9.79
2023-05-18T20:55:15.022Z,9.78
2023-05-18T20:56:18.966Z,9.79
2023-05-18T20:57:21.748Z,9.77
2023-05-18T20:58:26.465Z,9.77
2023-05-18T20:59:29.194Z,9.75
2023-05-18T21:00:32.226Z,9.75
2023-05-18T21:01:39.087Z,9.73
2023-05-18T21:02:45.110Z,9.72
2023-05-18T21:03:48.436Z,9.72
2023-05-18T21:04:51.185Z,9.70
2023-05-18T21:05:54.017Z,9.69
2023-05-18T21:06:56.744Z,9.68
2023-05-18T21:07:59.509Z,9.70
2023-05-18T21:09:02.222Z,9.80
2023-05-18T21:10:05.154Z,9.93
2023-05-18T21:11:08.056Z,10.06
2023-05-18T21:12:10.837Z,10.20
2023-05-18T21:13:13.902Z,10.31
2023-05-18T21:14:16.632Z,10.42
2023-05-18T21:15:20.067Z,10.52
2023-05-18T21:16:22.771Z,10.60
2023-05-18T21:17:26.269Z,10.68
2023-05-18T21:18:28.983Z,10.73
2023-05-18T21:19:31.787Z,10.79
2023-05-18T21:20:34.651Z,10.84
2023-05-18T21:21:37.484Z,10.89
2023-05-18T21:22:40.275Z,10.94
2023-05-18T21:23:43.170Z,10.97
2023-05-18T21:24:45.949Z,11.01
2023-05-18T21:25:48.680Z,11.04
2023-05-18T21:26:51.556Z,11.08
2023-05-18T21:27:54.276Z,11.11
2023-05-18T21:28:57.639Z,11.12
2023-05-18T21:30:00.347Z,11.15
2023-05-18T21:31:04.157Z,11.17
2023-05-18T21:32:07.147Z,11.20
2023-05-18T21:33:10.094Z,11.22
2023-05-18T21:34:13.850Z,11.24
2023-05-18T21:35:16.735Z,11.26
2023-05-18T21:36:34.884Z,11.27
2023-05-18T21:37:37.649Z,11.29
2023-05-18T21:38:40.460Z,11.31
2023-05-18T21:39:44.086Z,11.31
2023-05-18T21:40:47.017Z,11.32
2023-05-18T21:41:49.720Z,11.33
2023-05-18T21:42:52.469Z,11.34
2023-05-18T21:43:55.292Z,11.34
2023-05-18T21:44:58.052Z,11.35
2023-05-18T21:46:00.859Z,11.37
2023-05-18T21:47:03.801Z,11.37
2023-05-18T21:48:06.680Z,11.38
2023-05-18T21:49:09.499Z,11.38
2023-05-18T21:50:12.276Z,11.37
2023-05-18T21:51:15.707Z,11.38
2023-05-18T21:52:18.479Z,11.38
2023-05-18T21:53:21.264Z,11.38
2023-05-18T21:54:24.272Z,11.38
2023-05-18T21:55:27.056Z,11.38
2023-05-18T21:56:29.897Z,11.38
2023-05-18T21:57:32.911Z,11.38
2023-05-18T21:58:35.723Z,11.36
2023-05-18T21:59:38.543Z,11.35
2023-05-18T22:00:41.281Z,11.35
2023-05-18T22:01:44.043Z,11.33
2023-05-18T22:02:46.823Z,11.32
2023-05-18T22:03:52.937Z,11.31
2023-05-18T22:04:55.705Z,11.30
2023-05-18T22:05:58.634Z,11.29
2023-05-18T22:07:01.946Z,11.28
2023-05-18T22:08:04.741Z,11.26
2023-05-18T22:09:07.463Z,11.25
2023-05-18T22:10:11.261Z,11.24
2023-05-18T22:11:14.358Z,11.22
2023-05-18T22:12:17.150Z,11.21
2023-05-18T22:13:19.833Z,11.19
2023-05-18T22:14:22.639Z,11.18
2023-05-18T22:15:25.578Z,11.17
2023-05-18T22:16:28.645Z,11.16
2023-05-18T22:17:31.575Z,11.16
2023-05-18T22:18:34.300Z,11.14
2023-05-18T22:19:36.992Z,11.13
2023-05-18T22:20:39.742Z,11.13
2023-05-18T22:21:42.888Z,11.12
2023-05-18T22:22:45.638Z,11.11
2023-05-18T22:23:48.333Z,11.09
2023-05-18T22:24:51.304Z,11.09
2023-05-18T22:25:54.041Z,11.07
2023-05-18T22:26:56.807Z,11.07
2023-05-18T22:27:59.821Z,11.06
2023-05-18T22:29:02.603Z,11.05
2023-05-18T22:30:06.352Z,11.04
2023-05-18T22:31:09.140Z,11.02
2023-05-18T22:32:12.235Z,11.02
2023-05-18T22:33:15.202Z,11.00
2023-05-18T22:34:18.000Z,11.00
2023-05-18T22:35:20.775Z,10.98
2023-05-18T22:36:23.852Z,10.97
2023-05-18T22:37:26.681Z,10.97
2023-05-18T22:38:29.650Z,10.95
2023-05-18T22:39:32.438Z,10.95
2023-05-18T22:40:35.205Z,10.93
2023-05-18T22:41:37.918Z,10.92
2023-05-18T22:42:40.866Z,10.92
2023-05-18T22:43:43.624Z,10.91
2023-05-18T22:44:46.403Z,10.89
2023-05-18T22:45:49.436Z,10.88
2023-05-18T22:46:52.889Z,10.86
2023-05-18T22:47:55.990Z,10.84
2023-05-18T22:48:59.156Z,10.82
2023-05-18T22:50:01.928Z,10.81
2023-05-18T22:51:06.440Z,10.81
2023-05-18T22:52:10.325Z,10.80
2023-05-18T22:53:13.934Z,10.79
2023-05-18T22:54:16.757Z,10.78
2023-05-18T22:55:19.532Z,10.77
2023-05-18T22:56:22.373Z,10.77
2023-05-18T22:57:25.284Z,10.76
2023-05-18T22:58:28.020Z,10.75
2023-05-18T22:59:30.752Z,10.74
2023-05-18T23:00:33.552Z,10.74
2023-05-18T23:01:37.929Z,10.72
2023-05-18T23:02:41.287Z,10.71
2023-05-18T23:03:44.204Z,10.69
2023-05-18T23:04:46.986Z,10.68
2023-05-18T23:05:49.837Z,10.66
2023-05-18T23:06:54.125Z,10.64
2023-05-18T23:07:58.279Z,10.63
2023-05-18T23:09:01.149Z,10.60
2023-05-18T23:10:05.207Z,10.57
2023-05-18T23:11:07.897Z,10.55
2023-05-18T23:12:11.211Z,10.53
2023-05-18T23:13:17.023Z,10.52
2023-05-18T23:14:20.112Z,10.49
2023-05-18T23:15:23.282Z,10.48
2023-05-18T23:16:26.631Z,10.46
2023-05-18T23:17:29.968Z,10.45
2023-05-18T23:18:32.719Z,10.44
2023-05-18T23:19:36.308Z,10.43
2023-05-18T23:20:39.120Z,10.41
2023-05-18T23:21:41.852Z,10.40
2023-05-18T23:22:44.600Z,10.40
2023-05-18T23:23:47.548Z,10.39
2023-05-18T23:24:50.335Z,10.38
2023-05-18T23:25:53.068Z,10.38
2023-05-18T23:26:56.772Z,10.38
2023-05-18T23:27:59.462Z,10.37
2023-05-18T23:29:02.395Z,10.36
2023-05-18T23:30:05.568Z,10.36
2023-05-18T23:31:08.300Z,10.34
2023-05-18T23:32:11.095Z,10.33
2023-05-18T23:33:14.885Z,10.33
2023-05-18T23:34:18.096Z,10.31
2023-05-18T23:35:21.172Z,10.31
2023-05-18T23:36:27.497Z,10.30
2023-05-18T23:37:35.136Z,10.29
2023-05-18T23:38:41.007Z,10.28
2023-05-18T23:39:45.508Z,10.27
2023-05-18T23:40:48.964Z,10.26
2023-05-18T23:41:52.159Z,10.25
2023-05-18T23:42:55.074Z,10.25
2023-05-18T23:43:57.993Z,10.24
2023-05-18T23:45:00.916Z,10.24
2023-05-18T23:46:05.094Z,10.23
2023-05-18T23:47:08.104Z,10.22
2023-05-18T23:48:11.368Z,10.21
2023-05-18T23:49:14.200Z,10.21
2023-05-18T23:50:17.156Z,10.20
2023-05-18T23:51:23.141Z,10.19
2023-05-18T23:52:29.455Z,10.18
2023-05-18T23:53:32.313Z,10.17
2023-05-18T23:54:37.467Z,10.16
2023-05-18T23:55:41.493Z,10.15
2023-05-18T23:56:44.445Z,10.14
2023-05-18T23:57:48.251Z,10.13
2023-05-18T23:58:51.035Z,10.12
2023-05-18T23:59:55.301Z,10.12
